Hillsboro, West Virginia
Current Conditions -  °F | °C
As of 2:35 AM on Wednesday 26 Nov 2014 (Local Time) from KLWB Reporting Station
Overcast Overcast  
Wind Chill: 35°   Ceiling: 7500
Heat Index: 39°   Visibility: 10mi
Dew Point: 28°   Wind: 5mph
Humidity: 64%   Direction: 10°N
Pressure: 30.04"   Gusts: NA
Location:  38.14°N, 80.21°W
Report Text: KLWB 260735Z AUTO 01004KT 10SM BKN075 OVC080 04/M02 A3004 RMK AO2 T00381024
Loading
Personal Weather Stations






























Interactive Weather Map New forecast layout! Learn more

10-Day Weather Forecast

Advertisements
Track Severe Weather on mobile